Kezdőlap
METAR-TAF:

METAR-TAF

Repülőterek :

Arad, Románia

földrajzi szélesség: 46-12N, földrajzi hosszúság: 021-24E, magasság: 117 m

Jelenlegi meteorológiai megfigyelések

A jelentés 37 perccel ezelõtt készült, 23:30 UTC
Kelet-északkeleti szél 8 kt
Hőmérséklet 2°C
Páratartalom 100%
Légköri nyomás 1017 hPa
Látótávolság: 5000 m
Párásság

METAR: LRAR 192330Z AUTO 07008KT 5000 BR FEW021/// 02/02 Q1017

Idő: 02:07 (00:07 UTC)

Előrejelzés

A jelentés 10 órával és 7 perccel ezelõtt készült, 14:00 UTC
Az előrejelzés 19-én 15 óra UTC és 19-én 24 óra UTC között érvényes
Különbözõ irányokból fújó szél 4 kt
Látótávolság 10 km, vagy több
Szórványos felhőzet 1500 lábon
Szakadozott felhőzet 3000 lábon
19-én 18 óra UTC és 19-én 20 óra UTC között fokozatosan kialakuló
Kelet-északkeleti szél 10 kt
Szakadozott felhőzet 1000 lábon
Szakadozott felhőzet 3000 lábon

TAF: LRAR 191400Z 1915/1924 VRB04KT 9999 SCT015 BKN030 BECMG 1918/1920 06010KT BKN010 BKN030

Meteorológiai megfigyelések és előrejelzések több, mint 4000 repülőtéren (METAR és TAF jelentéseket).

A térképen piros és sárga pontok jelzik az elérhető meteorológiai állomásokat.

Mozgassa az egeret a pont fölött, hogy megjelenjen az állomás neve.

Azután kattintson az időjárási megfigyelések és előrejelzések megtekintéséhez.

A térkép megváltoztatása: kattintson a fekete keresztel jelölt zöld gombra ráközelítéshez, a vonallal jelölt zöld gombra távolításhoz, vagy a zöld nyilakra a szomszédos térképek eléréséhez.


METAR-TAF: